createdAt,value
2022-10-21T00:01:32.911Z,73.14
2022-10-21T00:06:36.706Z,72.99
2022-10-21T00:11:40.253Z,72.90
2022-10-21T00:16:45.608Z,72.98
2022-10-21T00:21:59.589Z,72.91
2022-10-21T00:27:04.527Z,72.91
2022-10-21T00:32:09.237Z,72.69
2022-10-21T00:37:15.464Z,72.89
2022-10-21T00:42:21.338Z,72.56
2022-10-21T00:47:24.431Z,72.71
2022-10-21T00:52:29.803Z,72.81
2022-10-21T00:57:35.532Z,72.82
2022-10-21T01:02:39.176Z,72.99
2022-10-21T01:07:43.091Z,73.08
2022-10-21T01:12:56.820Z,73.05
2022-10-21T01:18:23.545Z,73.28
2022-10-21T01:23:51.676Z,73.31
2022-10-21T01:29:09.693Z,73.41
2022-10-21T01:34:14.666Z,73.59
2022-10-21T01:39:28.211Z,73.42
2022-10-21T01:44:48.374Z,73.47
2022-10-21T01:50:04.960Z,73.21
2022-10-21T01:55:12.727Z,73.29
2022-10-21T02:00:16.402Z,73.51
2022-10-21T02:05:27.771Z,73.45
2022-10-21T02:10:37.336Z,73.60
2022-10-21T02:15:42.533Z,73.51
2022-10-21T02:20:56.220Z,73.80
2022-10-21T02:26:00.095Z,73.64
2022-10-21T02:31:06.249Z,73.66
2022-10-21T02:36:47.795Z,73.82
2022-10-21T02:41:54.033Z,73.83
2022-10-21T02:47:29.974Z,74.05
2022-10-21T02:52:33.515Z,74.28
2022-10-21T02:57:37.248Z,74.29
2022-10-21T03:02:41.235Z,74.31
2022-10-21T03:07:46.796Z,74.23
2022-10-21T03:12:50.720Z,74.26
2022-10-21T03:17:54.056Z,74.42
2022-10-21T03:22:57.398Z,74.34
2022-10-21T03:28:02.106Z,73.98
2022-10-21T03:33:06.146Z,74.10
2022-10-21T03:38:10.859Z,74.36
2022-10-21T03:43:14.242Z,74.17
2022-10-21T03:48:19.247Z,74.37
2022-10-21T03:53:42.183Z,74.39
2022-10-21T03:58:47.029Z,74.07
2022-10-21T04:03:50.760Z,73.96
2022-10-21T04:08:58.734Z,73.72
2022-10-21T04:14:02.335Z,73.78
2022-10-21T04:19:05.774Z,73.98
2022-10-21T04:24:11.269Z,73.89
2022-10-21T04:29:14.913Z,74.12
2022-10-21T04:34:18.784Z,73.82
2022-10-21T04:39:22.448Z,73.86
2022-10-21T04:44:25.872Z,73.75
2022-10-21T04:49:29.731Z,73.79
2022-10-21T04:54:34.246Z,73.42
2022-10-21T04:59:37.772Z,73.29
2022-10-21T05:04:41.700Z,73.00
2022-10-21T05:09:45.567Z,72.90
2022-10-21T05:14:48.995Z,72.82
2022-10-21T05:19:52.607Z,73.04
2022-10-21T05:24:55.964Z,73.24
2022-10-21T05:29:59.460Z,73.07
2022-10-21T05:35:03.003Z,72.53
2022-10-21T05:40:08.170Z,72.28
2022-10-21T05:45:13.295Z,71.82
2022-10-21T05:50:17.494Z,71.17
2022-10-21T05:55:21.610Z,70.23
2022-10-21T06:00:25.340Z,69.98
2022-10-21T06:05:33.860Z,69.81
2022-10-21T06:10:37.341Z,70.26
2022-10-21T06:15:40.929Z,70.18
2022-10-21T06:20:44.446Z,70.04
2022-10-21T06:26:01.189Z,69.43
2022-10-21T06:31:05.536Z,69.14
2022-10-21T06:36:09.384Z,68.41
2022-10-21T06:41:14.525Z,68.32
2022-10-21T06:46:18.585Z,68.24
2022-10-21T06:51:23.454Z,68.45
2022-10-21T06:56:27.978Z,68.92
2022-10-21T07:01:55.335Z,68.64
2022-10-21T07:06:55.658Z,67.92
2022-10-21T07:12:01.035Z,67.75
2022-10-21T07:17:05.372Z,67.25
2022-10-21T07:22:08.671Z,67.21
2022-10-21T07:27:12.196Z,66.71
2022-10-21T07:32:15.706Z,66.65
2022-10-21T07:37:19.073Z,66.66
2022-10-21T07:42:22.616Z,66.74
2022-10-21T07:47:26.148Z,66.43
2022-10-21T07:52:30.314Z,66.23
2022-10-21T07:57:35.246Z,65.72
2022-10-21T08:02:38.738Z,65.34
2022-10-21T08:07:42.739Z,64.54
2022-10-21T08:12:46.011Z,63.89
2022-10-21T08:17:49.235Z,63.24
2022-10-21T08:22:52.749Z,63.20
2022-10-21T08:27:56.947Z,63.32
2022-10-21T08:33:00.882Z,63.86
2022-10-21T08:38:04.451Z,63.61
2022-10-21T08:43:11.084Z,63.68
2022-10-21T08:48:20.162Z,63.66
2022-10-21T08:53:33.430Z,63.29
2022-10-21T08:58:37.210Z,63.43
2022-10-21T09:03:52.392Z,63.10
2022-10-21T09:09:18.200Z,63.16
2022-10-21T09:14:40.215Z,62.74
2022-10-21T09:20:01.826Z,62.31
2022-10-21T09:25:43.717Z,62.71
2022-10-21T09:30:47.900Z,62.69
2022-10-21T09:36:02.979Z,62.43
2022-10-21T09:41:13.981Z,62.15
2022-10-21T09:46:21.296Z,61.26
2022-10-21T09:51:32.056Z,60.73
2022-10-21T09:56:50.365Z,61.00
2022-10-21T10:01:55.767Z,61.05
2022-10-21T10:07:20.935Z,60.81
2022-10-21T10:12:27.421Z,60.39
2022-10-21T10:17:33.393Z,60.55
2022-10-21T10:22:45.089Z,60.07
2022-10-21T10:27:51.749Z,59.93
2022-10-21T10:32:57.080Z,60.10
2022-10-21T10:38:02.102Z,60.38
2022-10-21T10:43:22.352Z,59.89
2022-10-21T10:48:50.948Z,60.02
2022-10-21T10:54:25.362Z,60.01
2022-10-21T10:59:38.257Z,60.12
2022-10-21T11:04:46.762Z,60.09
2022-10-21T11:09:52.942Z,60.20
2022-10-21T11:14:58.805Z,60.26
2022-10-21T11:20:16.971Z,59.75
2022-10-21T11:25:28.964Z,59.60
2022-10-21T11:31:07.182Z,60.52
2022-10-21T11:36:16.273Z,60.57
2022-10-21T11:41:44.229Z,60.65
2022-10-21T11:47:06.556Z,60.32
2022-10-21T11:52:25.350Z,60.04
2022-10-21T11:57:39.520Z,60.36
2022-10-21T12:03:11.872Z,60.55
2022-10-21T12:08:43.842Z,60.43
2022-10-21T12:13:53.366Z,60.62
2022-10-21T12:19:04.590Z,60.86
2022-10-21T12:24:40.774Z,60.83
2022-10-21T12:30:26.513Z,61.39
2022-10-21T12:35:52.657Z,61.47
2022-10-21T12:41:20.794Z,61.59
2022-10-21T12:46:46.283Z,61.20
2022-10-21T12:52:14.714Z,61.70
2022-10-21T12:57:37.673Z,61.73
2022-10-21T13:03:10.370Z,62.10
2022-10-21T13:08:19.653Z,62.27
2022-10-21T13:13:44.803Z,62.75
2022-10-21T13:18:52.330Z,62.75
2022-10-21T13:23:58.339Z,63.04
2022-10-21T13:29:16.604Z,62.97
2022-10-21T13:34:28.542Z,63.33
2022-10-21T13:39:34.360Z,63.42
2022-10-21T13:44:40.735Z,63.35
2022-10-21T13:49:51.716Z,63.60
2022-10-21T13:55:00.538Z,63.70
2022-10-21T14:00:10.080Z,63.95
2022-10-21T14:05:54.096Z,63.91
2022-10-21T14:11:01.096Z,63.67
2022-10-21T14:16:06.952Z,63.79
2022-10-21T14:21:19.750Z,64.10
2022-10-21T14:26:23.347Z,64.44
2022-10-21T14:31:27.739Z,64.74
2022-10-21T14:36:31.857Z,64.92
2022-10-21T14:41:37.253Z,65.05
2022-10-21T14:46:46.467Z,65.34
2022-10-21T14:51:50.885Z,65.49
2022-10-21T14:56:56.207Z,65.75
2022-10-21T15:02:01.281Z,66.10
2022-10-21T15:07:04.855Z,66.24
2022-10-21T15:12:20.172Z,66.43
2022-10-21T15:17:23.678Z,66.67
2022-10-21T15:22:33.874Z,66.71
2022-10-21T15:27:43.000Z,66.69
2022-10-21T15:32:50.107Z,67.02
2022-10-21T15:37:54.687Z,67.18
2022-10-21T15:42:58.068Z,67.45
2022-10-21T15:48:01.259Z,67.59
2022-10-21T15:53:04.795Z,67.87
2022-10-21T15:58:10.153Z,67.84
2022-10-21T16:03:13.968Z,68.08
2022-10-21T16:08:17.309Z,68.18
2022-10-21T16:13:20.552Z,68.32
2022-10-21T16:18:23.923Z,68.27
2022-10-21T16:23:27.897Z,68.35
2022-10-21T16:28:31.512Z,68.39
2022-10-21T16:33:36.160Z,68.63
2022-10-21T16:38:39.416Z,68.53
2022-10-21T16:43:43.958Z,68.55
2022-10-21T16:48:47.491Z,68.65
2022-10-21T16:53:50.943Z,68.80
2022-10-21T16:58:54.662Z,68.75
2022-10-21T17:03:58.177Z,68.93
2022-10-21T17:09:01.655Z,68.83
2022-10-21T17:14:07.782Z,68.84
2022-10-21T17:19:12.775Z,69.03
2022-10-21T17:24:17.699Z,69.19
2022-10-21T17:29:20.958Z,68.98
2022-10-21T17:34:30.877Z,69.15
2022-10-21T17:39:34.474Z,69.15
2022-10-21T17:44:37.907Z,69.21
2022-10-21T17:49:41.792Z,69.29
2022-10-21T17:54:45.132Z,69.23
2022-10-21T17:59:48.481Z,69.35
2022-10-21T18:04:55.680Z,69.51
2022-10-21T18:09:59.332Z,69.29
2022-10-21T18:15:03.442Z,69.77
2022-10-21T18:20:07.663Z,69.29
2022-10-21T18:25:12.254Z,69.56
2022-10-21T18:30:16.083Z,69.26
2022-10-21T18:35:19.907Z,69.29
2022-10-21T18:40:23.343Z,69.36
2022-10-21T18:45:29.795Z,69.64
2022-10-21T18:50:36.050Z,69.66
2022-10-21T18:55:42.087Z,69.72
2022-10-21T19:00:45.669Z,69.77
2022-10-21T19:05:49.817Z,69.80
2022-10-21T19:10:53.240Z,70.11
2022-10-21T19:15:56.427Z,70.01
2022-10-21T19:20:59.834Z,70.04
2022-10-21T19:26:06.396Z,70.07
2022-10-21T19:31:10.957Z,70.05
2022-10-21T19:36:14.451Z,69.97
2022-10-21T19:41:21.154Z,70.02
2022-10-21T19:46:26.567Z,70.36
2022-10-21T19:51:30.355Z,70.28
2022-10-21T19:56:34.540Z,70.31
2022-10-21T20:01:38.216Z,70.32
2022-10-21T20:06:41.790Z,70.52
2022-10-21T20:11:45.053Z,70.58
2022-10-21T20:16:49.640Z,70.72
2022-10-21T20:21:52.811Z,70.90
2022-10-21T20:26:59.682Z,70.80
2022-10-21T20:32:05.655Z,70.99
2022-10-21T20:37:09.210Z,71.02
2022-10-21T20:42:12.618Z,71.11
2022-10-21T20:47:16.223Z,71.03
2022-10-21T20:52:19.743Z,71.10
2022-10-21T20:57:22.999Z,71.19
2022-10-21T21:02:26.349Z,71.36
2022-10-21T21:07:31.259Z,71.45
2022-10-21T21:12:41.864Z,71.45
2022-10-21T21:17:48.732Z,71.31
2022-10-21T21:22:52.163Z,71.34
2022-10-21T21:27:55.397Z,71.34
2022-10-21T21:32:58.864Z,71.43
2022-10-21T21:38:02.572Z,71.59
2022-10-21T21:43:05.925Z,71.66
2022-10-21T21:48:09.143Z,71.77
2022-10-21T21:53:15.968Z,71.99
2022-10-21T21:58:19.680Z,72.13
2022-10-21T22:03:23.549Z,72.11
2022-10-21T22:08:27.104Z,72.44
2022-10-21T22:13:30.463Z,72.37
2022-10-21T22:18:34.076Z,72.66
2022-10-21T22:23:40.892Z,72.57
2022-10-21T22:28:45.186Z,72.86
2022-10-21T22:33:48.803Z,72.70
2022-10-21T22:38:52.292Z,72.69
2022-10-21T22:43:56.526Z,72.81
2022-10-21T22:48:59.833Z,72.92
2022-10-21T22:54:03.654Z,72.86
2022-10-21T22:59:07.130Z,72.96
2022-10-21T23:04:11.183Z,73.07
2022-10-21T23:09:14.626Z,72.96
2022-10-21T23:14:17.986Z,73.21
2022-10-21T23:19:21.301Z,73.31
2022-10-21T23:24:24.568Z,73.04
2022-10-21T23:29:28.171Z,73.10
2022-10-21T23:34:32.221Z,73.33
2022-10-21T23:39:35.752Z,73.31
2022-10-21T23:44:38.994Z,73.45
2022-10-21T23:49:42.404Z,73.32
2022-10-21T23:54:45.941Z,73.39
2022-10-21T23:59:49.622Z,73.21
